sensor_id;sensor_type;location;lat;lon;timestamp;P1;durP1;ratioP1;P2;durP2;ratioP2
38240;SDS011;24037;49.536;8.500;2023-05-10T00:00:55;3.22;;;1.70;;
38240;SDS011;24037;49.536;8.500;2023-05-10T00:03:21;4.30;;;1.70;;
38240;SDS011;24037;49.536;8.500;2023-05-10T00:05:48;4.97;;;2.45;;
38240;SDS011;24037;49.536;8.500;2023-05-10T00:08:14;2.28;;;1.52;;
38240;SDS011;24037;49.536;8.500;2023-05-10T00:10:40;2.85;;;1.75;;
38240;SDS011;24037;49.536;8.500;2023-05-10T00:13:06;3.80;;;1.75;;
38240;SDS011;24037;49.536;8.500;2023-05-10T00:15:32;3.50;;;2.08;;
38240;SDS011;24037;49.536;8.500;2023-05-10T00:18:00;6.07;;;2.25;;
38240;SDS011;24037;49.536;8.500;2023-05-10T00:20:26;4.75;;;2.05;;
38240;SDS011;24037;49.536;8.500;2023-05-10T00:22:52;4.40;;;2.05;;
38240;SDS011;24037;49.536;8.500;2023-05-10T00:25:18;3.72;;;2.15;;
38240;SDS011;24037;49.536;8.500;2023-05-10T00:27:47;4.28;;;2.42;;
38240;SDS011;24037;49.536;8.500;2023-05-10T00:30:13;5.93;;;2.35;;
38240;SDS011;24037;49.536;8.500;2023-05-10T00:32:39;5.00;;;2.33;;
38240;SDS011;24037;49.536;8.500;2023-05-10T00:35:05;4.47;;;2.83;;
38240;SDS011;24037;49.536;8.500;2023-05-10T00:37:32;4.22;;;2.53;;
38240;SDS011;24037;49.536;8.500;2023-05-10T00:39:59;6.72;;;3.22;;
38240;SDS011;24037;49.536;8.500;2023-05-10T00:42:26;5.18;;;2.55;;
38240;SDS011;24037;49.536;8.500;2023-05-10T00:44:54;4.13;;;2.70;;
38240;SDS011;24037;49.536;8.500;2023-05-10T00:47:20;3.88;;;2.40;;
38240;SDS011;24037;49.536;8.500;2023-05-10T00:49:47;3.95;;;2.63;;
38240;SDS011;24037;49.536;8.500;2023-05-10T00:52:13;4.88;;;2.83;;
38240;SDS011;24037;49.536;8.500;2023-05-10T00:54:40;3.80;;;2.38;;
38240;SDS011;24037;49.536;8.500;2023-05-10T00:57:07;4.82;;;3.03;;
38240;SDS011;24037;49.536;8.500;2023-05-10T00:59:33;4.35;;;2.53;;
38240;SDS011;24037;49.536;8.500;2023-05-10T01:01:59;4.90;;;2.72;;
38240;SDS011;24037;49.536;8.500;2023-05-10T01:04:28;5.10;;;3.33;;
38240;SDS011;24037;49.536;8.500;2023-05-10T01:06:56;4.80;;;3.03;;
38240;SDS011;24037;49.536;8.500;2023-05-10T01:13:04;7.32;;;2.90;;
38240;SDS011;24037;49.536;8.500;2023-05-10T01:15:30;6.88;;;3.75;;
38240;SDS011;24037;49.536;8.500;2023-05-10T01:17:57;5.97;;;3.13;;
38240;SDS011;24037;49.536;8.500;2023-05-10T01:20:23;6.95;;;3.20;;
38240;SDS011;24037;49.536;8.500;2023-05-10T01:37:41;4.43;;;2.85;;
38240;SDS011;24037;49.536;8.500;2023-05-10T01:40:17;3.78;;;2.30;;
38240;SDS011;24037;49.536;8.500;2023-05-10T01:43:00;4.15;;;2.80;;
38240;SDS011;24037;49.536;8.500;2023-05-10T01:45:30;4.70;;;2.63;;
38240;SDS011;24037;49.536;8.500;2023-05-10T01:48:06;5.57;;;2.50;;
38240;SDS011;24037;49.536;8.500;2023-05-10T01:50:35;7.90;;;2.83;;
38240;SDS011;24037;49.536;8.500;2023-05-10T01:53:06;4.28;;;2.70;;
38240;SDS011;24037;49.536;8.500;2023-05-10T01:55:35;3.67;;;2.78;;
38240;SDS011;24037;49.536;8.500;2023-05-10T01:58:07;5.50;;;2.90;;
38240;SDS011;24037;49.536;8.500;2023-05-10T02:00:35;5.43;;;2.63;;
38240;SDS011;24037;49.536;8.500;2023-05-10T02:03:06;5.82;;;3.38;;
38240;SDS011;24037;49.536;8.500;2023-05-10T02:05:37;5.30;;;3.58;;
38240;SDS011;24037;49.536;8.500;2023-05-10T02:08:05;5.53;;;3.13;;
38240;SDS011;24037;49.536;8.500;2023-05-10T02:10:36;7.38;;;3.47;;
38240;SDS011;24037;49.536;8.500;2023-05-10T02:13:04;6.97;;;3.90;;
38240;SDS011;24037;49.536;8.500;2023-05-10T02:15:32;7.60;;;3.78;;
38240;SDS011;24037;49.536;8.500;2023-05-10T02:18:00;4.55;;;3.33;;
38240;SDS011;24037;49.536;8.500;2023-05-10T02:20:28;4.68;;;3.10;;
38240;SDS011;24037;49.536;8.500;2023-05-10T02:22:56;5.10;;;3.83;;
38240;SDS011;24037;49.536;8.500;2023-05-10T02:25:24;6.35;;;3.20;;
38240;SDS011;24037;49.536;8.500;2023-05-10T02:27:52;5.82;;;3.53;;
38240;SDS011;24037;49.536;8.500;2023-05-10T02:30:21;6.43;;;3.72;;
38240;SDS011;24037;49.536;8.500;2023-05-10T02:32:49;8.73;;;3.38;;
38240;SDS011;24037;49.536;8.500;2023-05-10T02:35:17;6.60;;;3.78;;
38240;SDS011;24037;49.536;8.500;2023-05-10T02:37:44;5.80;;;4.43;;
38240;SDS011;24037;49.536;8.500;2023-05-10T02:40:12;5.18;;;3.28;;
38240;SDS011;24037;49.536;8.500;2023-05-10T02:42:41;6.78;;;3.30;;
38240;SDS011;24037;49.536;8.500;2023-05-10T02:45:13;4.78;;;3.30;;
38240;SDS011;24037;49.536;8.500;2023-05-10T02:47:43;6.45;;;3.53;;
38240;SDS011;24037;49.536;8.500;2023-05-10T02:50:09;4.90;;;3.50;;
38240;SDS011;24037;49.536;8.500;2023-05-10T02:52:39;5.15;;;3.75;;
38240;SDS011;24037;49.536;8.500;2023-05-10T02:55:11;6.22;;;4.00;;
38240;SDS011;24037;49.536;8.500;2023-05-10T03:00:08;7.72;;;3.75;;
38240;SDS011;24037;49.536;8.500;2023-05-10T03:02:35;7.25;;;4.13;;
38240;SDS011;24037;49.536;8.500;2023-05-10T03:05:01;5.15;;;3.97;;
38240;SDS011;24037;49.536;8.500;2023-05-10T03:07:28;7.90;;;4.82;;
38240;SDS011;24037;49.536;8.500;2023-05-10T03:09:55;6.80;;;4.10;;
38240;SDS011;24037;49.536;8.500;2023-05-10T03:17:56;6.63;;;4.35;;
38240;SDS011;24037;49.536;8.500;2023-05-10T03:20:47;6.57;;;4.10;;
38240;SDS011;24037;49.536;8.500;2023-05-10T03:26:03;8.38;;;4.57;;
38240;SDS011;24037;49.536;8.500;2023-05-10T03:28:30;6.15;;;4.32;;
38240;SDS011;24037;49.536;8.500;2023-05-10T03:30:58;7.25;;;4.40;;
38240;SDS011;24037;49.536;8.500;2023-05-10T03:33:25;6.80;;;4.18;;
38240;SDS011;24037;49.536;8.500;2023-05-10T03:35:51;8.75;;;5.22;;
38240;SDS011;24037;49.536;8.500;2023-05-10T03:38:18;7.68;;;4.93;;
38240;SDS011;24037;49.536;8.500;2023-05-10T03:40:45;8.10;;;4.85;;
38240;SDS011;24037;49.536;8.500;2023-05-10T03:43:11;7.18;;;5.63;;
38240;SDS011;24037;49.536;8.500;2023-05-10T03:45:37;6.53;;;4.45;;
38240;SDS011;24037;49.536;8.500;2023-05-10T03:48:04;7.45;;;5.18;;
38240;SDS011;24037;49.536;8.500;2023-05-10T03:50:31;7.63;;;4.95;;
38240;SDS011;24037;49.536;8.500;2023-05-10T03:52:57;7.32;;;4.95;;
38240;SDS011;24037;49.536;8.500;2023-05-10T03:55:23;4.95;;;3.72;;
38240;SDS011;24037;49.536;8.500;2023-05-10T03:57:50;6.97;;;4.38;;
38240;SDS011;24037;49.536;8.500;2023-05-10T04:00:16;8.15;;;4.32;;
38240;SDS011;24037;49.536;8.500;2023-05-10T04:02:49;6.57;;;4.32;;
38240;SDS011;24037;49.536;8.500;2023-05-10T04:05:18;6.03;;;3.88;;
38240;SDS011;24037;49.536;8.500;2023-05-10T04:07:44;6.40;;;4.55;;
38240;SDS011;24037;49.536;8.500;2023-05-10T04:10:10;6.50;;;4.18;;
38240;SDS011;24037;49.536;8.500;2023-05-10T04:12:37;9.90;;;4.80;;
38240;SDS011;24037;49.536;8.500;2023-05-10T04:15:03;6.95;;;4.72;;
38240;SDS011;24037;49.536;8.500;2023-05-10T04:17:29;6.22;;;4.60;;
38240;SDS011;24037;49.536;8.500;2023-05-10T04:19:56;10.93;;;5.32;;
38240;SDS011;24037;49.536;8.500;2023-05-10T04:22:22;10.27;;;5.28;;
38240;SDS011;24037;49.536;8.500;2023-05-10T04:24:48;7.38;;;5.00;;
38240;SDS011;24037;49.536;8.500;2023-05-10T04:27:15;6.00;;;4.93;;
38240;SDS011;24037;49.536;8.500;2023-05-10T04:29:41;12.40;;;5.53;;
38240;SDS011;24037;49.536;8.500;2023-05-10T04:32:07;7.20;;;5.45;;
38240;SDS011;24037;49.536;8.500;2023-05-10T04:34:33;8.07;;;5.60;;
38240;SDS011;24037;49.536;8.500;2023-05-10T04:36:59;10.20;;;5.38;;
38240;SDS011;24037;49.536;8.500;2023-05-10T04:39:25;11.82;;;5.78;;
38240;SDS011;24037;49.536;8.500;2023-05-10T04:41:52;8.00;;;5.38;;
38240;SDS011;24037;49.536;8.500;2023-05-10T04:44:18;10.65;;;5.95;;
38240;SDS011;24037;49.536;8.500;2023-05-10T04:46:44;8.20;;;5.90;;
38240;SDS011;24037;49.536;8.500;2023-05-10T04:49:10;8.43;;;5.47;;
38240;SDS011;24037;49.536;8.500;2023-05-10T04:51:37;8.48;;;5.45;;
38240;SDS011;24037;49.536;8.500;2023-05-10T04:54:03;9.45;;;5.20;;
38240;SDS011;24037;49.536;8.500;2023-05-10T04:56:29;10.77;;;5.25;;
38240;SDS011;24037;49.536;8.500;2023-05-10T04:58:55;8.30;;;5.72;;
38240;SDS011;24037;49.536;8.500;2023-05-10T05:01:21;10.82;;;6.15;;
38240;SDS011;24037;49.536;8.500;2023-05-10T05:03:48;8.30;;;4.60;;
38240;SDS011;24037;49.536;8.500;2023-05-10T05:06:17;8.30;;;4.95;;
38240;SDS011;24037;49.536;8.500;2023-05-10T05:08:44;8.88;;;4.80;;
38240;SDS011;24037;49.536;8.500;2023-05-10T05:11:10;10.18;;;5.20;;
38240;SDS011;24037;49.536;8.500;2023-05-10T05:13:36;6.65;;;4.45;;
38240;SDS011;24037;49.536;8.500;2023-05-10T05:16:02;7.40;;;4.65;;
38240;SDS011;24037;49.536;8.500;2023-05-10T05:18:29;8.48;;;4.18;;
38240;SDS011;24037;49.536;8.500;2023-05-10T05:20:55;7.80;;;4.38;;
38240;SDS011;24037;49.536;8.500;2023-05-10T05:23:21;7.72;;;4.80;;
38240;SDS011;24037;49.536;8.500;2023-05-10T05:25:53;7.38;;;4.90;;
38240;SDS011;24037;49.536;8.500;2023-05-10T05:28:20;9.63;;;4.75;;
38240;SDS011;24037;49.536;8.500;2023-05-10T05:30:46;7.07;;;4.35;;
38240;SDS011;24037;49.536;8.500;2023-05-10T05:33:15;8.68;;;5.10;;
38240;SDS011;24037;49.536;8.500;2023-05-10T05:35:41;10.43;;;5.85;;
38240;SDS011;24037;49.536;8.500;2023-05-10T05:38:13;6.10;;;5.13;;
38240;SDS011;24037;49.536;8.500;2023-05-10T05:40:39;8.68;;;5.38;;
38240;SDS011;24037;49.536;8.500;2023-05-10T05:43:05;8.73;;;5.28;;
38240;SDS011;24037;49.536;8.500;2023-05-10T05:45:31;8.93;;;5.47;;
38240;SDS011;24037;49.536;8.500;2023-05-10T05:47:57;13.15;;;5.72;;
38240;SDS011;24037;49.536;8.500;2023-05-10T05:50:23;10.32;;;5.90;;
38240;SDS011;24037;49.536;8.500;2023-05-10T05:52:49;7.38;;;5.15;;
38240;SDS011;24037;49.536;8.500;2023-05-10T05:55:16;5.63;;;4.70;;
38240;SDS011;24037;49.536;8.500;2023-05-10T05:57:42;7.35;;;4.90;;
38240;SDS011;24037;49.536;8.500;2023-05-10T06:00:09;7.53;;;4.53;;
38240;SDS011;24037;49.536;8.500;2023-05-10T06:02:38;7.68;;;4.72;;
38240;SDS011;24037;49.536;8.500;2023-05-10T06:05:04;7.90;;;4.72;;
38240;SDS011;24037;49.536;8.500;2023-05-10T06:07:31;7.60;;;5.07;;
38240;SDS011;24037;49.536;8.500;2023-05-10T06:09:57;5.82;;;4.55;;
38240;SDS011;24037;49.536;8.500;2023-05-10T06:12:23;7.50;;;4.68;;
38240;SDS011;24037;49.536;8.500;2023-05-10T06:14:49;8.32;;;4.75;;
38240;SDS011;24037;49.536;8.500;2023-05-10T06:17:15;8.80;;;5.80;;
38240;SDS011;24037;49.536;8.500;2023-05-10T06:19:44;7.28;;;4.75;;
38240;SDS011;24037;49.536;8.500;2023-05-10T06:22:10;5.97;;;4.18;;
38240;SDS011;24037;49.536;8.500;2023-05-10T06:24:37;9.63;;;5.25;;
38240;SDS011;24037;49.536;8.500;2023-05-10T06:27:03;8.60;;;4.85;;
38240;SDS011;24037;49.536;8.500;2023-05-10T06:29:29;5.85;;;4.32;;
38240;SDS011;24037;49.536;8.500;2023-05-10T06:31:55;6.90;;;4.28;;
38240;SDS011;24037;49.536;8.500;2023-05-10T06:34:22;9.20;;;4.90;;
38240;SDS011;24037;49.536;8.500;2023-05-10T06:36:48;5.55;;;3.78;;
38240;SDS011;24037;49.536;8.500;2023-05-10T06:39:14;6.32;;;4.35;;
38240;SDS011;24037;49.536;8.500;2023-05-10T06:41:40;5.63;;;4.28;;
38240;SDS011;24037;49.536;8.500;2023-05-10T06:44:07;7.35;;;5.32;;
38240;SDS011;24037;49.536;8.500;2023-05-10T06:46:34;9.65;;;4.85;;
38240;SDS011;24037;49.536;8.500;2023-05-10T06:49:00;6.45;;;4.75;;
38240;SDS011;24037;49.536;8.500;2023-05-10T06:51:26;7.90;;;5.80;;
38240;SDS011;24037;49.536;8.500;2023-05-10T06:53:53;7.22;;;4.95;;
38240;SDS011;24037;49.536;8.500;2023-05-10T06:56:19;7.28;;;4.82;;
38240;SDS011;24037;49.536;8.500;2023-05-10T06:58:49;6.55;;;4.40;;
38240;SDS011;24037;49.536;8.500;2023-05-10T07:01:15;6.05;;;4.05;;
38240;SDS011;24037;49.536;8.500;2023-05-10T07:03:41;7.88;;;4.50;;
38240;SDS011;24037;49.536;8.500;2023-05-10T07:06:08;6.10;;;4.13;;
38240;SDS011;24037;49.536;8.500;2023-05-10T07:08:34;5.15;;;3.65;;
38240;SDS011;24037;49.536;8.500;2023-05-10T07:11:01;7.28;;;4.22;;
38240;SDS011;24037;49.536;8.500;2023-05-10T07:13:31;4.68;;;3.08;;
38240;SDS011;24037;49.536;8.500;2023-05-10T07:15:58;4.63;;;3.95;;
38240;SDS011;24037;49.536;8.500;2023-05-10T07:18:25;3.22;;;2.47;;
38240;SDS011;24037;49.536;8.500;2023-05-10T07:20:51;5.63;;;2.60;;
38240;SDS011;24037;49.536;8.500;2023-05-10T07:23:18;3.80;;;2.55;;
38240;SDS011;24037;49.536;8.500;2023-05-10T07:25:45;3.75;;;2.60;;
38240;SDS011;24037;49.536;8.500;2023-05-10T07:28:12;2.97;;;1.85;;
38240;SDS011;24037;49.536;8.500;2023-05-10T07:30:39;3.97;;;2.10;;
38240;SDS011;24037;49.536;8.500;2023-05-10T07:33:06;2.33;;;1.55;;
38240;SDS011;24037;49.536;8.500;2023-05-10T07:35:36;3.72;;;2.22;;
38240;SDS011;24037;49.536;8.500;2023-05-10T07:38:02;7.35;;;2.60;;
38240;SDS011;24037;49.536;8.500;2023-05-10T07:40:29;3.90;;;2.05;;
38240;SDS011;24037;49.536;8.500;2023-05-10T07:42:56;2.83;;;1.65;;
38240;SDS011;24037;49.536;8.500;2023-05-10T07:45:22;2.88;;;1.90;;
38240;SDS011;24037;49.536;8.500;2023-05-10T07:47:49;3.55;;;2.10;;
38240;SDS011;24037;49.536;8.500;2023-05-10T07:50:15;3.28;;;1.88;;
38240;SDS011;24037;49.536;8.500;2023-05-10T07:52:41;2.33;;;1.70;;
38240;SDS011;24037;49.536;8.500;2023-05-10T07:55:08;7.45;;;2.13;;
38240;SDS011;24037;49.536;8.500;2023-05-10T07:57:34;2.78;;;1.52;;
38240;SDS011;24037;49.536;8.500;2023-05-10T08:00:01;1.65;;;0.80;;
38240;SDS011;24037;49.536;8.500;2023-05-10T08:02:38;1.48;;;1.15;;
38240;SDS011;24037;49.536;8.500;2023-05-10T08:05:05;2.15;;;0.90;;
38240;SDS011;24037;49.536;8.500;2023-05-10T08:07:32;2.15;;;1.15;;
38240;SDS011;24037;49.536;8.500;2023-05-10T08:09:58;1.02;;;0.70;;
38240;SDS011;24037;49.536;8.500;2023-05-10T08:12:24;3.40;;;1.35;;
38240;SDS011;24037;49.536;8.500;2023-05-10T08:14:50;3.17;;;1.38;;
38240;SDS011;24037;49.536;8.500;2023-05-10T08:17:16;1.45;;;1.00;;
38240;SDS011;24037;49.536;8.500;2023-05-10T08:19:42;2.47;;;1.10;;
38240;SDS011;24037;49.536;8.500;2023-05-10T08:22:09;2.03;;;1.10;;
38240;SDS011;24037;49.536;8.500;2023-05-10T08:24:35;2.63;;;1.00;;
38240;SDS011;24037;49.536;8.500;2023-05-10T08:27:07;2.65;;;1.83;;
38240;SDS011;24037;49.536;8.500;2023-05-10T08:29:37;1.42;;;1.10;;
38240;SDS011;24037;49.536;8.500;2023-05-10T08:32:03;3.28;;;1.48;;
38240;SDS011;24037;49.536;8.500;2023-05-10T08:34:29;1.63;;;1.20;;
38240;SDS011;24037;49.536;8.500;2023-05-10T08:36:56;2.63;;;1.10;;
38240;SDS011;24037;49.536;8.500;2023-05-10T08:39:22;3.10;;;1.00;;
38240;SDS011;24037;49.536;8.500;2023-05-10T08:41:50;3.38;;;1.13;;
38240;SDS011;24037;49.536;8.500;2023-05-10T08:44:19;3.30;;;1.10;;
38240;SDS011;24037;49.536;8.500;2023-05-10T08:46:46;1.85;;;1.27;;
38240;SDS011;24037;49.536;8.500;2023-05-10T08:49:16;3.80;;;1.10;;
38240;SDS011;24037;49.536;8.500;2023-05-10T08:51:47;3.45;;;1.48;;
38240;SDS011;24037;49.536;8.500;2023-05-10T08:54:21;4.63;;;1.52;;
38240;SDS011;24037;49.536;8.500;2023-05-10T08:59:13;4.57;;;2.85;;
38240;SDS011;24037;49.536;8.500;2023-05-10T09:01:40;4.03;;;2.38;;
38240;SDS011;24037;49.536;8.500;2023-05-10T09:04:10;5.43;;;1.30;;
38240;SDS011;24037;49.536;8.500;2023-05-10T09:06:37;1.83;;;1.20;;
38240;SDS011;24037;49.536;8.500;2023-05-10T09:09:03;3.00;;;1.48;;
38240;SDS011;24037;49.536;8.500;2023-05-10T09:11:30;2.15;;;1.70;;
38240;SDS011;24037;49.536;8.500;2023-05-10T09:13:57;5.28;;;1.48;;
38240;SDS011;24037;49.536;8.500;2023-05-10T09:16:23;3.08;;;2.03;;
38240;SDS011;24037;49.536;8.500;2023-05-10T09:18:49;4.75;;;1.98;;
38240;SDS011;24037;49.536;8.500;2023-05-10T09:21:16;1.70;;;1.40;;
38240;SDS011;24037;49.536;8.500;2023-05-10T09:23:43;2.65;;;1.27;;
38240;SDS011;24037;49.536;8.500;2023-05-10T09:26:12;3.40;;;1.52;;
38240;SDS011;24037;49.536;8.500;2023-05-10T09:31:21;4.70;;;2.40;;
38240;SDS011;24037;49.536;8.500;2023-05-10T09:33:49;2.75;;;1.40;;
38240;SDS011;24037;49.536;8.500;2023-05-10T09:36:16;3.10;;;1.42;;
38240;SDS011;24037;49.536;8.500;2023-05-10T09:38:49;2.05;;;1.38;;
38240;SDS011;24037;49.536;8.500;2023-05-10T09:41:20;2.22;;;1.25;;
38240;SDS011;24037;49.536;8.500;2023-05-10T09:43:48;3.20;;;1.80;;
38240;SDS011;24037;49.536;8.500;2023-05-10T09:46:15;2.47;;;1.30;;
38240;SDS011;24037;49.536;8.500;2023-05-10T09:48:43;4.53;;;1.40;;
38240;SDS011;24037;49.536;8.500;2023-05-10T09:51:10;4.05;;;1.58;;
38240;SDS011;24037;49.536;8.500;2023-05-10T09:53:44;3.78;;;1.27;;
38240;SDS011;24037;49.536;8.500;2023-05-10T09:56:11;3.13;;;1.63;;
38240;SDS011;24037;49.536;8.500;2023-05-10T09:58:37;2.72;;;1.13;;
38240;SDS011;24037;49.536;8.500;2023-05-10T10:01:10;5.82;;;1.65;;
38240;SDS011;24037;49.536;8.500;2023-05-10T10:03:41;5.63;;;1.85;;
38240;SDS011;24037;49.536;8.500;2023-05-10T10:06:08;2.13;;;0.47;;
38240;SDS011;24037;49.536;8.500;2023-05-10T10:08:35;1.67;;;0.50;;
38240;SDS011;24037;49.536;8.500;2023-05-10T10:11:01;2.88;;;1.00;;
38240;SDS011;24037;49.536;8.500;2023-05-10T10:13:27;3.00;;;0.90;;
38240;SDS011;24037;49.536;8.500;2023-05-10T10:15:55;3.20;;;0.80;;
38240;SDS011;24037;49.536;8.500;2023-05-10T10:18:21;3.83;;;1.73;;
38240;SDS011;24037;49.536;8.500;2023-05-10T10:20:52;6.05;;;2.08;;
38240;SDS011;24037;49.536;8.500;2023-05-10T10:23:20;6.88;;;2.28;;
38240;SDS011;24037;49.536;8.500;2023-05-10T10:25:46;2.25;;;1.35;;
38240;SDS011;24037;49.536;8.500;2023-05-10T10:34:05;5.85;;;1.75;;
38240;SDS011;24037;49.536;8.500;2023-05-10T10:36:39;2.97;;;1.77;;
38240;SDS011;24037;49.536;8.500;2023-05-10T10:39:11;4.38;;;1.48;;
38240;SDS011;24037;49.536;8.500;2023-05-10T10:44:25;4.53;;;1.80;;
38240;SDS011;24037;49.536;8.500;2023-05-10T10:52:20;4.53;;;1.83;;
38240;SDS011;24037;49.536;8.500;2023-05-10T10:57:44;3.20;;;1.10;;
38240;SDS011;24037;49.536;8.500;2023-05-10T11:00:30;3.28;;;1.40;;
38240;SDS011;24037;49.536;8.500;2023-05-10T11:05:39;2.30;;;0.65;;
38240;SDS011;24037;49.536;8.500;2023-05-10T11:13:27;2.55;;;0.60;;
38240;SDS011;24037;49.536;8.500;2023-05-10T11:16:19;2.75;;;0.82;;
38240;SDS011;24037;49.536;8.500;2023-05-10T11:19:07;1.65;;;0.82;;
38240;SDS011;24037;49.536;8.500;2023-05-10T11:21:44;1.60;;;0.50;;
38240;SDS011;24037;49.536;8.500;2023-05-10T11:24:16;2.38;;;1.17;;
38240;SDS011;24037;49.536;8.500;2023-05-10T11:26:44;1.15;;;0.50;;
38240;SDS011;24037;49.536;8.500;2023-05-10T11:29:12;1.92;;;0.85;;
38240;SDS011;24037;49.536;8.500;2023-05-10T11:31:42;1.90;;;0.50;;
38240;SDS011;24037;49.536;8.500;2023-05-10T11:34:10;1.48;;;0.60;;
38240;SDS011;24037;49.536;8.500;2023-05-10T11:36:36;3.70;;;0.38;;
38240;SDS011;24037;49.536;8.500;2023-05-10T11:39:03;0.70;;;0.40;;
38240;SDS011;24037;49.536;8.500;2023-05-10T11:41:30;2.10;;;0.60;;
38240;SDS011;24037;49.536;8.500;2023-05-10T11:43:57;2.22;;;0.70;;
38240;SDS011;24037;49.536;8.500;2023-05-10T11:46:25;2.38;;;0.30;;
38240;SDS011;24037;49.536;8.500;2023-05-10T11:49:01;0.75;;;0.40;;
38240;SDS011;24037;49.536;8.500;2023-05-10T11:51:32;2.55;;;0.60;;
38240;SDS011;24037;49.536;8.500;2023-05-10T11:53:59;1.23;;;0.50;;
38240;SDS011;24037;49.536;8.500;2023-05-10T11:56:25;5.75;;;1.00;;
38240;SDS011;24037;49.536;8.500;2023-05-10T11:58:53;0.90;;;0.40;;
38240;SDS011;24037;49.536;8.500;2023-05-10T12:01:21;1.58;;;0.40;;
38240;SDS011;24037;49.536;8.500;2023-05-10T12:03:49;4.30;;;0.80;;
38240;SDS011;24037;49.536;8.500;2023-05-10T12:06:16;3.78;;;0.75;;
38240;SDS011;24037;49.536;8.500;2023-05-10T12:08:44;2.95;;;0.57;;
38240;SDS011;24037;49.536;8.500;2023-05-10T12:11:19;1.42;;;0.52;;
38240;SDS011;24037;49.536;8.500;2023-05-10T12:13:47;7.22;;;1.13;;
38240;SDS011;24037;49.536;8.500;2023-05-10T12:16:24;1.63;;;0.55;;
38240;SDS011;24037;49.536;8.500;2023-05-10T12:18:55;1.55;;;0.70;;
38240;SDS011;24037;49.536;8.500;2023-05-10T12:21:23;6.88;;;0.60;;
38240;SDS011;24037;49.536;8.500;2023-05-10T12:23:50;2.40;;;0.60;;
38240;SDS011;24037;49.536;8.500;2023-05-10T12:26:21;3.63;;;1.08;;
38240;SDS011;24037;49.536;8.500;2023-05-10T12:28:48;2.83;;;0.55;;
38240;SDS011;24037;49.536;8.500;2023-05-10T12:31:14;4.90;;;0.80;;
38240;SDS011;24037;49.536;8.500;2023-05-10T12:33:43;2.00;;;0.80;;
38240;SDS011;24037;49.536;8.500;2023-05-10T12:36:11;1.27;;;0.60;;
38240;SDS011;24037;49.536;8.500;2023-05-10T12:38:39;4.22;;;0.50;;
38240;SDS011;24037;49.536;8.500;2023-05-10T12:41:12;1.45;;;0.80;;
38240;SDS011;24037;49.536;8.500;2023-05-10T12:43:40;1.27;;;0.50;;
38240;SDS011;24037;49.536;8.500;2023-05-10T12:46:10;1.27;;;0.50;;
38240;SDS011;24037;49.536;8.500;2023-05-10T12:48:38;1.85;;;0.90;;
38240;SDS011;24037;49.536;8.500;2023-05-10T12:51:04;3.38;;;0.88;;
38240;SDS011;24037;49.536;8.500;2023-05-10T12:53:35;6.13;;;0.90;;
38240;SDS011;24037;49.536;8.500;2023-05-10T12:56:02;3.53;;;0.50;;
38240;SDS011;24037;49.536;8.500;2023-05-10T12:58:28;9.88;;;0.93;;
38240;SDS011;24037;49.536;8.500;2023-05-10T13:00:54;1.50;;;0.93;;
38240;SDS011;24037;49.536;8.500;2023-05-10T13:03:22;2.45;;;0.60;;
38240;SDS011;24037;49.536;8.500;2023-05-10T13:05:48;2.80;;;0.70;;
38240;SDS011;24037;49.536;8.500;2023-05-10T13:08:14;3.53;;;0.50;;
38240;SDS011;24037;49.536;8.500;2023-05-10T13:10:40;2.95;;;0.55;;
38240;SDS011;24037;49.536;8.500;2023-05-10T13:13:06;3.40;;;0.52;;
38240;SDS011;24037;49.536;8.500;2023-05-10T13:15:33;1.20;;;0.45;;
38240;SDS011;24037;49.536;8.500;2023-05-10T13:18:00;1.80;;;0.50;;
38240;SDS011;24037;49.536;8.500;2023-05-10T13:20:26;2.17;;;0.65;;
38240;SDS011;24037;49.536;8.500;2023-05-10T13:22:53;3.85;;;0.43;;
38240;SDS011;24037;49.536;8.500;2023-05-10T13:25:19;2.22;;;0.50;;
38240;SDS011;24037;49.536;8.500;2023-05-10T13:27:45;2.10;;;0.50;;
38240;SDS011;24037;49.536;8.500;2023-05-10T13:30:11;2.10;;;0.40;;
38240;SDS011;24037;49.536;8.500;2023-05-10T13:32:38;1.23;;;0.40;;
38240;SDS011;24037;49.536;8.500;2023-05-10T13:35:04;0.93;;;0.57;;
38240;SDS011;24037;49.536;8.500;2023-05-10T13:37:31;3.03;;;0.30;;
38240;SDS011;24037;49.536;8.500;2023-05-10T13:40:02;1.67;;;0.40;;
38240;SDS011;24037;49.536;8.500;2023-05-10T13:42:29;2.25;;;0.40;;
38240;SDS011;24037;49.536;8.500;2023-05-10T13:44:57;0.95;;;0.40;;
38240;SDS011;24037;49.536;8.500;2023-05-10T13:47:23;1.77;;;0.43;;
38240;SDS011;24037;49.536;8.500;2023-05-10T13:49:49;2.60;;;0.40;;
38240;SDS011;24037;49.536;8.500;2023-05-10T13:52:15;0.55;;;0.30;;
38240;SDS011;24037;49.536;8.500;2023-05-10T13:54:42;0.93;;;0.30;;
38240;SDS011;24037;49.536;8.500;2023-05-10T13:57:08;1.92;;;0.47;;
38240;SDS011;24037;49.536;8.500;2023-05-10T13:59:34;1.95;;;0.50;;
38240;SDS011;24037;49.536;8.500;2023-05-10T14:02:00;2.15;;;0.80;;
38240;SDS011;24037;49.536;8.500;2023-05-10T14:04:29;1.75;;;0.40;;
38240;SDS011;24037;49.536;8.500;2023-05-10T14:06:56;5.65;;;1.35;;
38240;SDS011;24037;49.536;8.500;2023-05-10T14:09:22;1.88;;;0.32;;
38240;SDS011;24037;49.536;8.500;2023-05-10T14:11:48;6.15;;;0.65;;
38240;SDS011;24037;49.536;8.500;2023-05-10T14:14:14;1.70;;;0.40;;
38240;SDS011;24037;49.536;8.500;2023-05-10T14:16:44;3.03;;;0.65;;
38240;SDS011;24037;49.536;8.500;2023-05-10T14:19:10;2.13;;;0.32;;
38240;SDS011;24037;49.536;8.500;2023-05-10T14:21:36;3.83;;;0.30;;
38240;SDS011;24037;49.536;8.500;2023-05-10T14:24:03;3.90;;;0.30;;
38240;SDS011;24037;49.536;8.500;2023-05-10T14:26:30;0.45;;;0.30;;
38240;SDS011;24037;49.536;8.500;2023-05-10T14:28:57;1.95;;;0.30;;
38240;SDS011;24037;49.536;8.500;2023-05-10T14:31:23;1.58;;;0.50;;
38240;SDS011;24037;49.536;8.500;2023-05-10T14:33:50;2.15;;;0.30;;
38240;SDS011;24037;49.536;8.500;2023-05-10T14:36:17;1.60;;;0.30;;
38240;SDS011;24037;49.536;8.500;2023-05-10T14:38:43;0.77;;;0.38;;
38240;SDS011;24037;49.536;8.500;2023-05-10T14:41:10;0.93;;;0.40;;
38240;SDS011;24037;49.536;8.500;2023-05-10T14:43:39;3.40;;;0.47;;
38240;SDS011;24037;49.536;8.500;2023-05-10T14:46:06;0.60;;;0.20;;
38240;SDS011;24037;49.536;8.500;2023-05-10T14:48:32;0.88;;;0.35;;
38240;SDS011;24037;49.536;8.500;2023-05-10T14:50:59;0.30;;;0.20;;
38240;SDS011;24037;49.536;8.500;2023-05-10T14:53:25;1.23;;;0.45;;
38240;SDS011;24037;49.536;8.500;2023-05-10T14:55:51;3.05;;;0.40;;
38240;SDS011;24037;49.536;8.500;2023-05-10T14:58:17;0.57;;;0.20;;
38240;SDS011;24037;49.536;8.500;2023-05-10T15:00:45;2.97;;;0.20;;
38240;SDS011;24037;49.536;8.500;2023-05-10T15:03:12;1.65;;;0.50;;
38240;SDS011;24037;49.536;8.500;2023-05-10T15:05:38;1.48;;;0.30;;
38240;SDS011;24037;49.536;8.500;2023-05-10T15:08:04;1.33;;;0.30;;
38240;SDS011;24037;49.536;8.500;2023-05-10T15:10:31;2.45;;;0.50;;
38240;SDS011;24037;49.536;8.500;2023-05-10T15:12:58;2.13;;;0.30;;
38240;SDS011;24037;49.536;8.500;2023-05-10T15:15:24;3.08;;;0.30;;
38240;SDS011;24037;49.536;8.500;2023-05-10T15:17:51;1.65;;;0.32;;
38240;SDS011;24037;49.536;8.500;2023-05-10T15:20:17;0.40;;;0.20;;
38240;SDS011;24037;49.536;8.500;2023-05-10T15:22:43;3.38;;;0.50;;
38240;SDS011;24037;49.536;8.500;2023-05-10T15:25:09;3.03;;;0.50;;
38240;SDS011;24037;49.536;8.500;2023-05-10T15:27:35;0.75;;;0.20;;
38240;SDS011;24037;49.536;8.500;2023-05-10T15:30:02;2.40;;;0.70;;
38240;SDS011;24037;49.536;8.500;2023-05-10T15:32:28;3.10;;;0.30;;
38240;SDS011;24037;49.536;8.500;2023-05-10T15:34:54;2.75;;;0.20;;
38240;SDS011;24037;49.536;8.500;2023-05-10T15:37:21;2.67;;;0.28;;
38240;SDS011;24037;49.536;8.500;2023-05-10T15:39:49;0.80;;;0.30;;
38240;SDS011;24037;49.536;8.500;2023-05-10T15:42:15;1.60;;;0.28;;
38240;SDS011;24037;49.536;8.500;2023-05-10T15:44:41;0.80;;;0.70;;
38240;SDS011;24037;49.536;8.500;2023-05-10T15:47:09;0.40;;;0.20;;
38240;SDS011;24037;49.536;8.500;2023-05-10T15:49:36;1.33;;;0.38;;